createdAt,value
2018-03-21T00:01:10.905Z,10.33
2018-03-21T00:03:39.249Z,13.97
2018-03-21T00:06:07.608Z,10.80
2018-03-21T00:08:35.950Z,7.17
2018-03-21T00:11:04.295Z,6.50
2018-03-21T00:13:32.629Z,8.20
2018-03-21T00:16:01.236Z,5.07
2018-03-21T00:18:29.906Z,6.47
2018-03-21T00:20:58.325Z,4.33
2018-03-21T00:23:26.675Z,5.70
2018-03-21T00:25:55.041Z,8.13
2018-03-21T00:28:23.384Z,8.47
2018-03-21T00:30:51.737Z,6.23
2018-03-21T00:33:20.136Z,6.07
2018-03-21T00:35:48.471Z,5.00
2018-03-21T00:38:16.822Z,7.20
2018-03-21T00:40:45.175Z,6.77
2018-03-21T00:43:13.508Z,8.03
2018-03-21T00:45:42.140Z,7.37
2018-03-21T00:48:10.491Z,6.93
2018-03-21T00:50:38.808Z,7.70
2018-03-21T00:53:07.174Z,11.03
2018-03-21T00:55:35.520Z,8.07
2018-03-21T00:58:03.867Z,10.60
2018-03-21T01:00:32.207Z,10.53
2018-03-21T01:03:00.576Z,5.87
2018-03-21T01:05:28.953Z,11.27
2018-03-21T01:07:57.892Z,7.33
2018-03-21T01:10:26.487Z,7.83
2018-03-21T01:12:54.842Z,10.37
2018-03-21T01:15:23.201Z,10.90
2018-03-21T01:17:51.538Z,7.27
2018-03-21T01:20:19.900Z,7.37
2018-03-21T01:22:48.242Z,9.20
2018-03-21T01:25:16.604Z,6.33
2018-03-21T01:27:44.953Z,10.97
2018-03-21T01:30:13.320Z,8.90
2018-03-21T01:32:41.682Z,7.83
2018-03-21T01:35:10.044Z,13.83
2018-03-21T01:37:38.392Z,10.70
2018-03-21T01:40:06.745Z,12.87
2018-03-21T01:42:35.108Z,10.80
2018-03-21T01:45:03.482Z,12.90
2018-03-21T01:47:31.824Z,7.77
2018-03-21T01:50:00.257Z,8.87
2018-03-21T01:52:28.646Z,11.70
2018-03-21T01:54:56.992Z,7.60
2018-03-21T01:57:25.322Z,10.47
2018-03-21T01:59:53.936Z,9.13
2018-03-21T02:02:22.268Z,7.27
2018-03-21T02:04:50.621Z,6.43
2018-03-21T02:07:19.136Z,10.10
2018-03-21T02:09:47.474Z,8.77
2018-03-21T02:12:15.851Z,6.20
2018-03-21T02:14:44.248Z,7.93
2018-03-21T02:17:12.575Z,7.13
2018-03-21T02:19:40.912Z,8.53
2018-03-21T02:22:09.248Z,7.63
2018-03-21T02:24:37.602Z,12.03
2018-03-21T02:27:05.957Z,6.43
2018-03-21T02:29:34.743Z,9.27
2018-03-21T02:32:03.079Z,6.77
2018-03-21T02:34:31.437Z,8.87
2018-03-21T02:36:59.785Z,11.37
2018-03-21T02:39:28.154Z,6.77
2018-03-21T02:41:56.528Z,9.70
2018-03-21T02:44:24.874Z,10.07
2018-03-21T02:46:53.448Z,8.73
2018-03-21T02:49:21.783Z,10.27
2018-03-21T02:51:50.160Z,8.60
2018-03-21T02:54:18.521Z,7.13
2018-03-21T02:56:46.969Z,7.47
2018-03-21T02:59:15.324Z,10.73
2018-03-21T03:01:43.664Z,8.40
2018-03-21T03:04:12.013Z,7.10
2018-03-21T03:06:40.349Z,7.07
2018-03-21T03:09:08.700Z,8.30
2018-03-21T03:11:37.027Z,5.13
2018-03-21T03:14:05.395Z,7.33
2018-03-21T03:16:33.758Z,8.17
2018-03-21T03:19:02.128Z,6.63
2018-03-21T03:21:30.472Z,7.87
2018-03-21T03:23:58.858Z,9.90
2018-03-21T03:26:27.194Z,9.90
2018-03-21T03:28:55.536Z,7.37
2018-03-21T03:31:23.946Z,9.73
2018-03-21T03:33:52.304Z,9.20
2018-03-21T03:36:20.649Z,8.37
2018-03-21T03:38:48.997Z,9.63
2018-03-21T03:41:17.366Z,5.87
2018-03-21T03:43:45.711Z,6.87
2018-03-21T03:46:14.046Z,6.07
2018-03-21T03:48:42.404Z,8.80
2018-03-21T03:51:10.742Z,5.70
2018-03-21T03:53:39.102Z,7.50
2018-03-21T03:56:07.440Z,8.60
2018-03-21T03:58:35.804Z,11.57
2018-03-21T04:01:04.154Z,7.57
2018-03-21T04:03:32.508Z,8.43
2018-03-21T04:06:00.857Z,8.60
2018-03-21T04:08:29.230Z,7.03
2018-03-21T04:10:57.578Z,8.50
2018-03-21T04:13:25.908Z,7.27
2018-03-21T04:15:54.421Z,9.37
2018-03-21T04:18:22.752Z,6.33
2018-03-21T04:20:51.149Z,5.50
2018-03-21T04:23:19.496Z,6.37
2018-03-21T04:25:47.877Z,5.70
2018-03-21T04:28:16.227Z,6.90
2018-03-21T04:30:44.572Z,7.07
2018-03-21T04:33:12.995Z,7.67
2018-03-21T04:35:41.337Z,7.23
2018-03-21T04:38:09.682Z,7.57
2018-03-21T04:40:38.047Z,7.00
2018-03-21T04:43:06.480Z,7.83
2018-03-21T04:45:34.842Z,8.60
2018-03-21T04:48:03.180Z,8.70
2018-03-21T04:50:31.536Z,5.03
2018-03-21T04:52:59.884Z,9.67
2018-03-21T04:55:28.271Z,7.60
2018-03-21T04:57:56.615Z,8.03
2018-03-21T05:00:24.948Z,8.73
2018-03-21T05:02:53.435Z,9.10
2018-03-21T05:05:21.777Z,9.77
2018-03-21T05:07:50.115Z,9.00
2018-03-21T05:10:18.472Z,8.40
2018-03-21T05:12:46.818Z,9.73
2018-03-21T05:15:15.182Z,8.53
2018-03-21T05:17:43.530Z,8.87
2018-03-21T05:20:11.938Z,8.20
2018-03-21T05:22:40.304Z,9.40
2018-03-21T05:25:08.638Z,9.40
2018-03-21T05:27:36.981Z,10.80
2018-03-21T05:30:05.324Z,10.13
2018-03-21T05:32:33.675Z,9.23
2018-03-21T05:35:02.017Z,10.03
2018-03-21T05:37:30.976Z,10.83
2018-03-21T05:39:59.328Z,14.47
2018-03-21T05:42:27.690Z,12.80
2018-03-21T05:44:56.038Z,11.87
2018-03-21T05:47:24.690Z,12.17
2018-03-21T05:49:53.056Z,11.57
2018-03-21T05:52:21.389Z,9.30
2018-03-21T05:54:49.748Z,10.73
2018-03-21T05:57:18.094Z,8.23
2018-03-21T05:59:46.460Z,15.90
2018-03-21T06:02:14.809Z,11.33
2018-03-21T06:04:43.158Z,16.43
2018-03-21T06:07:11.508Z,17.27
2018-03-21T06:09:39.863Z,11.67
2018-03-21T06:12:08.217Z,11.63
2018-03-21T06:14:36.659Z,15.07
2018-03-21T06:17:05.036Z,10.67
2018-03-21T06:19:33.376Z,10.13
2018-03-21T06:22:01.720Z,13.43
2018-03-21T06:24:30.082Z,11.33
2018-03-21T06:26:58.436Z,11.37
2018-03-21T06:29:26.798Z,12.63
2018-03-21T06:31:55.399Z,9.87
2018-03-21T06:34:24.542Z,11.20
2018-03-21T06:36:52.896Z,9.93
2018-03-21T06:39:21.241Z,10.73
2018-03-21T06:41:49.592Z,11.20
2018-03-21T06:44:17.944Z,11.57
2018-03-21T06:46:46.303Z,8.93
2018-03-21T06:49:14.638Z,9.73
2018-03-21T06:51:43.024Z,8.80
2018-03-21T06:54:11.605Z,10.17
2018-03-21T06:56:39.928Z,13.37
2018-03-21T06:59:08.284Z,10.50
2018-03-21T07:01:36.620Z,8.77
2018-03-21T07:04:04.974Z,9.73
2018-03-21T07:06:33.329Z,8.57
2018-03-21T07:09:01.774Z,10.13
2018-03-21T07:11:30.451Z,8.27
2018-03-21T07:17:05.576Z,9.40
2018-03-21T07:19:33.932Z,11.43
2018-03-21T07:22:03.038Z,10.50
2018-03-21T07:24:32.163Z,14.37
2018-03-21T07:27:00.598Z,9.93
2018-03-21T07:29:29.919Z,13.63
2018-03-21T07:31:59.024Z,14.97
2018-03-21T07:34:27.373Z,6.10
2018-03-21T07:36:55.739Z,9.60
2018-03-21T07:39:24.174Z,7.37
2018-03-21T07:41:52.508Z,10.50
2018-03-21T07:44:20.940Z,16.03
2018-03-21T07:46:49.303Z,11.77
2018-03-21T07:49:17.749Z,12.50
2018-03-21T07:51:46.087Z,11.37
2018-03-21T07:54:14.416Z,11.67
2018-03-21T07:56:43.555Z,20.87
2018-03-21T07:59:11.880Z,14.67
2018-03-21T08:01:40.237Z,7.87
2018-03-21T08:04:08.884Z,11.43
2018-03-21T08:06:37.275Z,9.57
2018-03-21T08:09:05.602Z,9.43
2018-03-21T08:11:33.931Z,14.20
2018-03-21T08:14:02.296Z,10.27
2018-03-21T08:16:30.621Z,12.63
2018-03-21T08:18:58.978Z,10.17
2018-03-21T08:21:27.331Z,11.83
2018-03-21T08:23:55.728Z,10.27
2018-03-21T08:26:25.142Z,10.87
2018-03-21T08:28:55.349Z,9.90
2018-03-21T08:31:23.699Z,9.13
2018-03-21T08:33:52.049Z,11.80
2018-03-21T08:36:20.408Z,11.20
2018-03-21T08:38:48.967Z,10.93
2018-03-21T08:41:17.314Z,10.40
2018-03-21T08:43:46.428Z,14.20
2018-03-21T08:46:14.762Z,8.43
2018-03-21T08:48:43.083Z,8.37
2018-03-21T08:51:11.495Z,13.00
2018-03-21T08:53:39.861Z,7.60
2018-03-21T08:56:08.338Z,7.87
2018-03-21T08:58:36.672Z,6.83
2018-03-21T09:01:05.019Z,12.57
2018-03-21T09:03:33.358Z,8.10
2018-03-21T09:06:01.817Z,5.80
2018-03-21T09:08:30.945Z,8.53
2018-03-21T09:10:59.311Z,9.33
2018-03-21T09:13:27.736Z,6.70
2018-03-21T09:15:56.072Z,4.93
2018-03-21T09:18:24.429Z,4.27
2018-03-21T09:20:52.768Z,9.63
2018-03-21T09:23:21.117Z,7.77
2018-03-21T09:25:49.448Z,6.33
2018-03-21T09:28:17.812Z,5.77
2018-03-21T09:30:46.160Z,4.90
2018-03-21T09:33:14.526Z,4.83
2018-03-21T09:35:43.121Z,7.77
2018-03-21T09:38:11.462Z,7.50
2018-03-21T09:40:39.831Z,4.47
2018-03-21T09:43:08.140Z,6.13
2018-03-21T09:45:36.477Z,6.40
2018-03-21T09:48:04.815Z,7.40
2018-03-21T09:50:33.191Z,8.00
2018-03-21T09:53:01.575Z,6.47
2018-03-21T09:55:29.914Z,6.53
2018-03-21T09:57:59.052Z,6.13
2018-03-21T10:00:27.383Z,5.50
2018-03-21T10:02:55.798Z,8.57
2018-03-21T10:05:24.412Z,6.67
2018-03-21T10:07:52.794Z,6.93
2018-03-21T10:10:21.136Z,6.83
2018-03-21T10:12:49.574Z,9.10
2018-03-21T10:15:17.950Z,5.07
2018-03-21T10:17:46.276Z,4.43
2018-03-21T10:20:14.617Z,8.23
2018-03-21T10:22:42.980Z,5.33
2018-03-21T10:25:11.359Z,6.03
2018-03-21T10:27:39.741Z,4.37
2018-03-21T10:30:08.107Z,5.03
2018-03-21T10:32:36.517Z,6.47
2018-03-21T10:35:04.836Z,5.13
2018-03-21T10:37:33.176Z,6.97
2018-03-21T10:40:01.549Z,7.20
2018-03-21T10:42:29.897Z,7.47
2018-03-21T10:44:58.260Z,5.47
2018-03-21T10:47:26.600Z,7.13
2018-03-21T10:49:55.716Z,8.60
2018-03-21T10:52:24.053Z,6.40
2018-03-21T10:54:52.392Z,7.83
2018-03-21T10:57:20.727Z,4.57
2018-03-21T10:59:49.169Z,7.37
2018-03-21T11:02:17.559Z,5.23
2018-03-21T11:04:45.900Z,6.63
2018-03-21T11:07:14.276Z,4.50
2018-03-21T11:09:42.631Z,6.53
2018-03-21T11:12:11.723Z,10.10
2018-03-21T11:14:40.844Z,5.97
2018-03-21T11:17:09.191Z,4.43
2018-03-21T11:19:38.235Z,6.60
2018-03-21T11:22:06.570Z,3.03
2018-03-21T11:24:34.951Z,4.13
2018-03-21T11:27:04.046Z,4.20
2018-03-21T11:29:33.153Z,4.90
2018-03-21T11:32:02.325Z,5.23
2018-03-21T11:34:30.639Z,5.87
2018-03-21T11:36:59.041Z,5.10
2018-03-21T11:39:27.375Z,4.87
2018-03-21T11:41:55.768Z,8.67
2018-03-21T11:44:24.116Z,6.13
2018-03-21T11:46:52.557Z,5.30
2018-03-21T11:49:20.913Z,5.73
2018-03-21T11:51:49.252Z,8.57
2018-03-21T11:54:17.751Z,4.10
2018-03-21T11:56:46.068Z,5.83
2018-03-21T11:59:14.555Z,7.43
2018-03-21T12:01:42.881Z,5.83
2018-03-21T12:04:11.397Z,4.87
2018-03-21T12:06:40.514Z,4.47
2018-03-21T12:09:08.860Z,3.73
2018-03-21T12:11:37.207Z,3.60
2018-03-21T12:14:05.641Z,4.47
2018-03-21T12:16:34.012Z,5.53
2018-03-21T12:19:02.344Z,3.97
2018-03-21T12:21:30.684Z,4.63
2018-03-21T12:23:59.039Z,5.93
2018-03-21T12:26:28.137Z,3.73
2018-03-21T12:28:56.509Z,2.80
2018-03-21T12:31:25.624Z,5.50
2018-03-21T12:33:53.965Z,3.23
2018-03-21T12:36:22.541Z,3.17
2018-03-21T12:38:50.991Z,4.47
2018-03-21T12:41:19.332Z,2.60
2018-03-21T12:43:47.693Z,4.80
2018-03-21T12:46:16.863Z,3.00
2018-03-21T12:48:45.230Z,2.57
2018-03-21T12:51:13.587Z,4.00
2018-03-21T12:53:42.603Z,4.10
2018-03-21T12:56:11.016Z,2.77
2018-03-21T12:58:40.084Z,6.00
2018-03-21T13:01:08.446Z,4.57
2018-03-21T13:03:37.128Z,5.80
2018-03-21T13:06:05.775Z,5.87
2018-03-21T13:08:34.097Z,4.53
2018-03-21T13:11:02.513Z,2.93
2018-03-21T13:13:30.863Z,5.47
2018-03-21T13:15:59.254Z,4.90
2018-03-21T13:18:27.586Z,7.47
2018-03-21T13:20:55.992Z,9.13
2018-03-21T13:23:24.372Z,4.60
2018-03-21T13:25:52.720Z,5.43
2018-03-21T13:28:21.086Z,5.67
2018-03-21T13:30:49.485Z,7.37
2018-03-21T13:33:18.591Z,6.37
2018-03-21T13:35:46.938Z,7.30
2018-03-21T13:38:16.832Z,7.73
2018-03-21T13:40:45.216Z,10.33
2018-03-21T13:43:13.568Z,8.97
2018-03-21T13:45:41.902Z,9.20
2018-03-21T13:48:10.243Z,9.83
2018-03-21T13:50:38.586Z,9.47
2018-03-21T13:53:07.580Z,11.67
2018-03-21T13:55:35.937Z,6.83
2018-03-21T13:58:05.032Z,9.77
2018-03-21T14:00:33.487Z,11.60
2018-03-21T14:03:01.819Z,10.17
2018-03-21T14:05:30.173Z,13.00
2018-03-21T14:07:59.280Z,9.37
2018-03-21T14:10:27.638Z,11.27
2018-03-21T14:12:56.887Z,12.73
2018-03-21T14:15:25.264Z,12.30
2018-03-21T14:17:53.645Z,15.87
2018-03-21T14:20:21.985Z,12.13
2018-03-21T14:22:52.116Z,11.73
2018-03-21T14:25:20.496Z,13.53
2018-03-21T14:27:48.837Z,12.50
2018-03-21T14:30:17.192Z,12.77
2018-03-21T14:32:45.535Z,10.30
2018-03-21T14:35:13.879Z,9.33
2018-03-21T14:37:42.257Z,11.13
2018-03-21T14:40:10.600Z,11.03
2018-03-21T14:42:38.965Z,9.87
2018-03-21T14:45:07.309Z,12.83
2018-03-21T14:47:35.658Z,13.23
2018-03-21T14:50:04.050Z,13.97
2018-03-21T14:52:32.406Z,15.73
2018-03-21T14:55:00.755Z,14.67
2018-03-21T14:57:29.079Z,9.50
2018-03-21T14:59:57.469Z,14.03
2018-03-21T15:02:25.817Z,14.57
2018-03-21T15:04:54.155Z,14.20
2018-03-21T15:07:22.498Z,14.40
2018-03-21T15:09:51.812Z,15.97
2018-03-21T15:12:20.741Z,14.90
2018-03-21T15:14:49.092Z,14.63
2018-03-21T15:17:17.452Z,14.70
2018-03-21T15:19:46.582Z,9.90
2018-03-21T15:22:15.521Z,10.13
2018-03-21T15:24:43.868Z,11.20
2018-03-21T15:27:12.230Z,8.60
2018-03-21T15:29:40.594Z,16.47
2018-03-21T15:32:09.010Z,12.83
2018-03-21T15:34:37.433Z,10.83
2018-03-21T15:37:05.733Z,12.57
2018-03-21T15:39:34.094Z,10.80
2018-03-21T15:42:03.293Z,10.30
2018-03-21T15:44:31.960Z,9.47
2018-03-21T15:47:00.324Z,9.27
2018-03-21T15:49:29.423Z,12.67
2018-03-21T15:51:57.770Z,12.40
2018-03-21T15:54:26.104Z,9.33
2018-03-21T15:56:54.468Z,10.23
2018-03-21T15:59:24.239Z,12.33
2018-03-21T16:01:52.557Z,9.07
2018-03-21T16:04:20.913Z,13.33
2018-03-21T16:06:49.285Z,13.07
2018-03-21T16:09:18.261Z,14.40
2018-03-21T16:11:46.710Z,16.23
2018-03-21T16:14:16.465Z,15.93
2018-03-21T16:16:44.803Z,12.23
2018-03-21T16:19:13.192Z,11.77
2018-03-21T16:21:41.609Z,12.40
2018-03-21T16:24:09.986Z,12.50
2018-03-21T16:26:38.346Z,14.83
2018-03-21T16:29:06.697Z,10.03
2018-03-21T16:31:35.174Z,15.70
2018-03-21T16:34:04.205Z,12.03
2018-03-21T16:36:32.615Z,13.87
2018-03-21T16:39:00.983Z,16.17
2018-03-21T16:41:29.333Z,12.93
2018-03-21T16:43:57.724Z,10.37
2018-03-21T16:46:26.088Z,15.63
2018-03-21T16:48:54.470Z,13.20
2018-03-21T16:51:23.682Z,11.33
2018-03-21T16:53:52.072Z,15.47
2018-03-21T16:56:20.455Z,16.63
2018-03-21T16:58:48.862Z,14.90
2018-03-21T17:01:18.718Z,21.07
2018-03-21T17:03:47.854Z,14.60
2018-03-21T17:06:16.185Z,16.87
2018-03-21T17:08:45.306Z,16.53
2018-03-21T17:11:13.632Z,18.90
2018-03-21T17:13:41.968Z,15.17
2018-03-21T17:16:10.446Z,16.43
2018-03-21T17:18:38.776Z,17.97
2018-03-21T17:21:07.161Z,13.53
2018-03-21T17:23:35.497Z,16.10
2018-03-21T17:26:03.828Z,15.27
2018-03-21T17:28:32.237Z,17.17
2018-03-21T17:31:00.591Z,16.60
2018-03-21T17:33:29.685Z,13.17
2018-03-21T17:35:58.816Z,18.07
2018-03-21T17:38:27.151Z,18.93
2018-03-21T17:40:55.521Z,19.40
2018-03-21T17:43:23.863Z,15.00
2018-03-21T17:45:52.216Z,15.17
2018-03-21T17:48:20.862Z,14.47
2018-03-21T17:50:49.357Z,12.33
2018-03-21T17:53:17.904Z,19.30
2018-03-21T17:55:46.346Z,17.87
2018-03-21T17:58:15.825Z,19.33
2018-03-21T18:00:44.187Z,15.13
2018-03-21T18:03:12.551Z,15.80
2018-03-21T18:05:40.879Z,14.83
2018-03-21T18:08:09.293Z,17.27
2018-03-21T18:10:37.693Z,14.70
2018-03-21T18:13:06.058Z,14.50
2018-03-21T18:15:34.473Z,22.43
2018-03-21T18:18:02.840Z,19.47
2018-03-21T18:20:31.291Z,14.73
2018-03-21T18:22:59.641Z,18.03
2018-03-21T18:25:28.031Z,16.47
2018-03-21T18:27:57.175Z,20.00
2018-03-21T18:30:25.531Z,19.07
2018-03-21T18:32:53.917Z,17.20
2018-03-21T18:35:22.323Z,17.57
2018-03-21T18:37:50.697Z,13.93
2018-03-21T18:40:19.035Z,17.97
2018-03-21T18:42:48.115Z,15.17
2018-03-21T18:45:16.485Z,19.37
2018-03-21T18:47:45.590Z,18.53
2018-03-21T18:50:13.960Z,17.47
2018-03-21T18:52:42.320Z,20.17
2018-03-21T18:55:10.710Z,16.40
2018-03-21T18:57:39.087Z,16.67
2018-03-21T19:00:08.227Z,19.27
2018-03-21T19:02:36.706Z,17.00
2018-03-21T19:05:05.070Z,17.73
2018-03-21T19:07:33.448Z,20.90
2018-03-21T19:10:01.805Z,20.83
2018-03-21T19:12:30.978Z,16.80
2018-03-21T19:14:59.318Z,18.83
2018-03-21T19:17:27.696Z,19.43
2018-03-21T19:19:56.705Z,19.53
2018-03-21T19:22:25.063Z,14.67
2018-03-21T19:24:53.451Z,21.50
2018-03-21T19:27:21.799Z,21.97
2018-03-21T19:29:50.957Z,17.43
2018-03-21T19:32:20.133Z,17.83
2018-03-21T19:34:48.475Z,15.50
2018-03-21T19:37:16.893Z,22.57
2018-03-21T19:39:45.394Z,15.17
2018-03-21T19:42:13.732Z,14.97
2018-03-21T19:44:42.223Z,18.23
2018-03-21T19:47:10.586Z,20.27
2018-03-21T19:49:38.943Z,15.90
2018-03-21T19:52:08.088Z,18.97
2018-03-21T19:54:36.421Z,16.57
2018-03-21T19:57:05.646Z,18.10
2018-03-21T19:59:33.973Z,15.57
2018-03-21T20:02:02.341Z,18.63
2018-03-21T20:04:31.610Z,17.87
2018-03-21T20:06:59.963Z,14.17
2018-03-21T20:09:29.077Z,17.67
2018-03-21T20:11:57.526Z,18.57
2018-03-21T20:14:26.778Z,20.27
2018-03-21T20:16:55.100Z,15.00
2018-03-21T20:19:23.440Z,11.40
2018-03-21T20:21:51.895Z,15.57
2018-03-21T20:24:20.372Z,14.47
2018-03-21T20:26:48.846Z,15.27
2018-03-21T20:29:17.961Z,18.07
2018-03-21T20:31:46.530Z,14.60
2018-03-21T20:34:16.977Z,13.77
2018-03-21T20:36:46.296Z,21.83
2018-03-21T20:39:14.662Z,14.20
2018-03-21T20:41:43.897Z,17.30
2018-03-21T20:44:12.244Z,15.17
2018-03-21T20:46:40.665Z,18.23
2018-03-21T20:49:09.178Z,19.27
2018-03-21T20:51:37.537Z,16.27
2018-03-21T20:54:05.902Z,17.30
2018-03-21T20:56:34.291Z,18.00
2018-03-21T20:59:02.681Z,15.27
2018-03-21T21:01:32.266Z,17.07
2018-03-21T21:04:00.685Z,15.03
2018-03-21T21:06:29.771Z,14.23
2018-03-21T21:08:58.881Z,13.60
2018-03-21T21:11:27.230Z,16.27
2018-03-21T21:13:55.641Z,19.03
2018-03-21T21:16:23.993Z,15.63
2018-03-21T21:18:52.337Z,17.53
2018-03-21T21:21:20.773Z,20.63
2018-03-21T21:23:49.131Z,19.03
2018-03-21T21:26:18.318Z,21.90
2018-03-21T21:28:46.626Z,18.20
2018-03-21T21:31:15.068Z,19.60
2018-03-21T21:33:43.527Z,19.93
2018-03-21T21:36:11.906Z,18.77
2018-03-21T21:38:40.251Z,17.47
2018-03-21T21:41:09.387Z,22.03
2018-03-21T21:43:37.901Z,26.47
2018-03-21T21:46:06.239Z,15.40
2018-03-21T21:48:34.591Z,20.57
2018-03-21T21:51:02.947Z,21.70
2018-03-21T21:53:31.359Z,23.97
2018-03-21T21:55:59.711Z,23.97
2018-03-21T21:58:28.820Z,24.70
2018-03-21T22:00:57.176Z,24.47
2018-03-21T22:03:25.533Z,26.30
2018-03-21T22:05:53.890Z,30.70
2018-03-21T22:08:22.232Z,33.13
2018-03-21T22:10:50.584Z,30.07
2018-03-21T22:13:18.924Z,29.43
2018-03-21T22:15:47.349Z,39.40
2018-03-21T22:18:16.453Z,32.50
2018-03-21T22:20:45.601Z,39.73
2018-03-21T22:23:14.076Z,36.07
2018-03-21T22:25:42.418Z,38.23
2018-03-21T22:28:10.765Z,36.63
2018-03-21T22:30:39.107Z,41.90
2018-03-21T22:33:07.549Z,44.37
2018-03-21T22:35:36.662Z,40.33
2018-03-21T22:38:05.029Z,36.37
2018-03-21T22:40:33.529Z,44.77
2018-03-21T22:43:01.904Z,40.33
2018-03-21T22:45:31.108Z,47.13
2018-03-21T22:47:59.437Z,42.27
2018-03-21T22:50:27.791Z,42.17
2018-03-21T22:52:56.140Z,42.90
2018-03-21T22:55:24.508Z,48.87
2018-03-21T22:57:53.612Z,43.97
2018-03-21T23:00:21.976Z,49.20
2018-03-21T23:02:50.324Z,46.40
2018-03-21T23:05:18.749Z,47.70
2018-03-21T23:07:47.155Z,47.87
2018-03-21T23:10:15.619Z,48.13
2018-03-21T23:12:44.056Z,51.03
2018-03-21T23:15:12.513Z,43.13
2018-03-21T23:17:41.561Z,46.87
2018-03-21T23:20:09.905Z,47.83
2018-03-21T23:22:38.309Z,51.50
2018-03-21T23:25:07.404Z,42.67
2018-03-21T23:27:36.565Z,44.03
2018-03-21T23:30:04.984Z,49.70
2018-03-21T23:32:34.111Z,47.57
2018-03-21T23:35:02.479Z,50.90
2018-03-21T23:37:30.825Z,51.53
2018-03-21T23:39:59.182Z,46.73
2018-03-21T23:42:27.643Z,50.87
2018-03-21T23:44:55.980Z,50.17
2018-03-21T23:47:25.094Z,50.03
2018-03-21T23:49:53.456Z,47.40
2018-03-21T23:52:22.565Z,45.03
2018-03-21T23:54:51.074Z,46.10
2018-03-21T23:57:19.429Z,46.80
2018-03-21T23:59:47.769Z,46.53
